This is the latest recevied weather packets stored in our database for station/object F5MAP-5. If no packets are shown the sender has not sent any weather packets the latest 10 day(s).
| Time | Temp. | Humidity | Pressure | Rain* | Wind** | Luminosity | Snow |
|---|---|---|---|---|---|---|---|
| 1778348532 | 23.33° C | 41% | 1012.1 hPa | 0 mm | - | 28 W/m² | - |
| 1778347932 | 23.33° C | 41% | 1012.1 hPa | 0 mm | - | 32 W/m² | - |
| 1778347332 | 23.33° C | 41% | 1012 hPa | 0 mm | - | 30 W/m² | - |
| 1778346732 | 23.33° C | 41% | 1012.1 hPa | 0 mm | - | 30 W/m² | - |
| 1778346132 | 23.33° C | 42% | 1012 hPa | 0 mm | - | 32 W/m² | - |
| 1778345532 | 23.33° C | 41% | 1012.2 hPa | 0 mm | - | 33 W/m² | - |
| 1778344932 | 23.33° C | 42% | 1012.2 hPa | 0 mm | - | 35 W/m² | - |
| 1778343731 | 23.89° C | 41% | 1012.4 hPa | 0 mm | - | 39 W/m² | - |
| 1778343132 | 23.89° C | 41% | 1012.4 hPa | 0 mm | - | 37 W/m² | - |
| 1778342532 | 23.89° C | 40% | 1012.4 hPa | 0 mm | - | 33 W/m² | - |
| 1778341931 | 23.89° C | 40% | 1012.5 hPa | 0 mm | - | 33 W/m² | - |
| 1778341331 | 24.44° C | 40% | 1012.6 hPa | 0 mm | - | 30 W/m² | - |
| 1778340731 | 24.44° C | 41% | 1012.5 hPa | 0 mm | - | 32 W/m² | - |
| 1778340131 | 24.44° C | 40% | 1012.5 hPa | 0 mm | - | 35 W/m² | - |
| 1778338932 | 24.44° C | 37% | 1012.6 hPa | 0 mm | - | 62 W/m² | - |
| 1778337731 | 24.44° C | 34% | 1012.8 hPa | 0 mm | - | 35 W/m² | - |
| 1778337132 | 24.44° C | 33% | 1013 hPa | 0 mm | - | 37 W/m² | - |
| 1778336531 | 24.44° C | 37% | 1013.2 hPa | 0 mm | - | 40 W/m² | - |
| 1778335331 | 25.56° C | 37% | 1013.7 hPa | 0 mm | - | 63 W/m² | - |
| 1778334733 | 25.56° C | 38% | 1013.7 hPa | 0 mm | - | 58 W/m² | - |
| 1778334133 | 25.56° C | 37% | 1013.9 hPa | 0 mm | - | 100 W/m² | - |
| 1778333533 | 25.56° C | 39% | 1014 hPa | 0 mm | - | 786 W/m² | - |
| 1778332932 | 25° C | 40% | 1014 hPa | 0 mm | - | 773 W/m² | - |
| 1778331733 | 25.56° C | 42% | 1014.2 hPa | 0 mm | - | 775 W/m² | - |
| 1778331133 | 25.56° C | 43% | 1014.3 hPa | 0 mm | - | 782 W/m² | - |
* Rain latest hour (hover to see other rain measurements)
** Current wind speed in m/s (hover to see current wind gust speed)